createdAt,value
2022-12-11T00:00:40.698Z,99917.97
2022-12-11T00:03:11.380Z,99911.47
2022-12-11T00:05:41.661Z,99918.63
2022-12-11T00:08:08.236Z,99926.09
2022-12-11T00:10:37.822Z,99919.00
2022-12-11T00:13:04.737Z,99919.91
2022-12-11T00:15:31.357Z,99921.09
2022-12-11T00:17:57.789Z,99920.59
2022-12-11T00:20:24.745Z,99910.63
2022-12-11T00:22:51.246Z,99912.22
2022-12-11T00:25:17.754Z,99911.47
2022-12-11T00:27:46.592Z,99915.59
2022-12-11T00:30:13.862Z,99911.47
2022-12-11T00:32:40.487Z,99910.66
2022-12-11T00:35:07.210Z,99909.84
2022-12-11T00:37:33.697Z,99911.28
2022-12-11T00:40:00.210Z,99914.56
2022-12-11T00:42:26.615Z,99922.13
2022-12-11T00:44:54.816Z,99921.25
2022-12-11T00:47:21.256Z,99919.25
2022-12-11T00:49:49.951Z,99925.09
2022-12-11T00:52:17.849Z,99927.78
2022-12-11T00:54:44.703Z,99919.00
2022-12-11T00:57:11.180Z,99922.56
2022-12-11T00:59:37.745Z,99927.03
2022-12-11T01:02:04.186Z,99924.06
2022-12-11T01:04:30.650Z,99922.59
2022-12-11T01:06:57.123Z,99925.84
2022-12-11T01:09:41.910Z,99920.09
2022-12-11T01:12:08.331Z,99911.03
2022-12-11T01:14:34.878Z,99923.31
2022-12-11T01:17:01.349Z,99922.31
2022-12-11T01:19:28.472Z,99928.75
2022-12-11T01:21:55.058Z,99916.97
2022-12-11T01:24:21.679Z,99921.34
2022-12-11T01:26:48.134Z,99927.94
2022-12-11T01:29:14.600Z,99932.19
2022-12-11T01:31:41.266Z,99934.00
2022-12-11T01:34:07.723Z,99939.16
2022-12-11T01:36:34.179Z,99940.03
2022-12-11T01:39:00.669Z,99936.41
2022-12-11T01:41:27.097Z,99937.28
2022-12-11T01:44:06.184Z,99937.78
2022-12-11T01:46:36.914Z,99936.69
2022-12-11T01:49:11.386Z,99936.06
2022-12-11T01:51:42.191Z,99931.03
2022-12-11T01:54:13.411Z,99935.66
2022-12-11T01:56:43.520Z,99927.53
2022-12-11T01:59:10.692Z,99926.09
2022-12-11T02:01:42.936Z,99931.38
2022-12-11T02:04:11.213Z,99929.13
2022-12-11T02:06:46.874Z,99925.16
2022-12-11T02:09:16.240Z,99930.06
2022-12-11T02:12:07.622Z,99928.38
2022-12-11T02:14:52.287Z,99931.81
2022-12-11T02:17:29.426Z,99928.97
2022-12-11T02:20:05.718Z,99926.09
2022-12-11T02:22:59.509Z,99930.91
2022-12-11T02:25:32.978Z,99929.66
2022-12-11T02:28:25.588Z,99920.53
2022-12-11T02:30:57.068Z,99922.53
2022-12-11T02:33:32.746Z,99915.63
2022-12-11T02:36:01.108Z,99915.59
2022-12-11T02:38:32.890Z,99911.81
2022-12-11T02:41:01.177Z,99918.16
2022-12-11T02:43:29.285Z,99914.25
2022-12-11T02:45:56.786Z,99905.97
2022-12-11T02:48:24.432Z,99914.50
2022-12-11T02:50:55.784Z,99918.09
2022-12-11T02:53:26.294Z,99920.31
2022-12-11T02:56:00.911Z,99921.19
2022-12-11T02:58:32.907Z,99921.09
2022-12-11T03:00:59.702Z,99921.94
2022-12-11T03:03:29.295Z,99912.13
2022-12-11T03:05:55.750Z,99926.88
2022-12-11T03:08:22.269Z,99921.44
2022-12-11T03:10:48.761Z,99927.88
2022-12-11T03:13:20.248Z,99922.72
2022-12-11T03:15:58.648Z,99919.31
2022-12-11T03:18:39.549Z,99914.41
2022-12-11T03:21:14.481Z,99926.09
2022-12-11T03:24:14.968Z,99919.16
2022-12-11T03:26:55.971Z,99920.09
2022-12-11T03:29:51.458Z,99908.75
2022-12-11T03:32:23.143Z,99913.44
2022-12-11T03:35:08.115Z,99915.19
2022-12-11T03:37:37.436Z,99922.84
2022-12-11T03:40:09.143Z,99926.91
2022-12-11T03:42:37.422Z,99921.97
2022-12-11T03:45:05.076Z,99923.31
2022-12-11T03:47:33.075Z,99922.97
2022-12-11T03:50:00.028Z,99924.47
2022-12-11T03:52:29.051Z,99927.97
2022-12-11T03:55:00.199Z,99923.25
2022-12-11T03:57:31.783Z,99921.50
2022-12-11T03:59:58.407Z,99918.59
2022-12-11T04:02:24.831Z,99922.31
2022-12-11T04:04:51.286Z,99923.75
2022-12-11T04:07:17.729Z,99923.97
2022-12-11T04:09:44.177Z,99921.78
2022-12-11T04:12:10.592Z,99928.97
2022-12-11T04:14:55.793Z,99921.63
2022-12-11T04:17:48.124Z,99933.13
2022-12-11T04:20:33.405Z,99925.16
2022-12-11T04:23:18.742Z,99933.13
2022-12-11T04:25:45.283Z,99933.78
2022-12-11T04:28:11.808Z,99932.78
2022-12-11T04:30:38.332Z,99920.09
2022-12-11T04:33:04.960Z,99932.53
2022-12-11T04:35:31.512Z,99935.16
2022-12-11T04:37:58.571Z,99929.00
2022-12-11T04:40:25.186Z,99934.38
2022-12-11T04:42:51.711Z,99935.41
2022-12-11T04:45:18.458Z,99925.31
2022-12-11T04:47:45.006Z,99925.97
2022-12-11T04:50:14.226Z,99932.28
2022-12-11T04:52:41.328Z,99928.44
2022-12-11T04:55:09.133Z,99925.81
2022-12-11T04:57:35.817Z,99931.22
2022-12-11T05:00:04.710Z,99927.44
2022-12-11T05:02:34.745Z,99926.97
2022-12-11T05:05:01.361Z,99923.78
2022-12-11T05:07:27.784Z,99920.22
2022-12-11T05:09:54.255Z,99925.53
2022-12-11T05:12:20.682Z,99926.97
2022-12-11T05:14:47.268Z,99926.59
2022-12-11T05:17:13.701Z,99922.53
2022-12-11T05:19:40.176Z,99920.88
2022-12-11T05:22:06.629Z,99911.41
2022-12-11T05:24:33.093Z,99914.97
2022-12-11T05:26:59.576Z,99911.56
2022-12-11T05:29:26.053Z,99914.53
2022-12-11T05:31:52.495Z,99906.53
2022-12-11T05:34:18.958Z,99904.84
2022-12-11T05:36:45.452Z,99908.19
2022-12-11T05:39:12.226Z,99912.03
2022-12-11T05:41:38.824Z,99912.00
2022-12-11T05:44:05.681Z,99906.34
2022-12-11T05:46:32.358Z,99905.34
2022-12-11T05:49:00.994Z,99905.97
2022-12-11T05:51:28.763Z,99903.88
2022-12-11T05:53:56.845Z,99905.13
2022-12-11T05:56:26.904Z,99898.09
2022-12-11T05:58:54.322Z,99900.25
2022-12-11T06:01:30.788Z,99897.28
2022-12-11T06:03:57.962Z,99898.06
2022-12-11T06:06:25.487Z,99902.03
2022-12-11T06:08:53.291Z,99894.88
2022-12-11T06:11:23.936Z,99901.78
2022-12-11T06:13:52.199Z,99904.56
2022-12-11T06:16:19.334Z,99904.47
2022-12-11T06:18:46.160Z,99901.88
2022-12-11T06:21:21.422Z,99898.44
2022-12-11T06:23:51.339Z,99908.81
2022-12-11T06:26:19.016Z,99907.69
2022-12-11T06:28:46.505Z,99904.97
2022-12-11T06:31:13.528Z,99904.78
2022-12-11T06:33:43.054Z,99917.06
2022-12-11T06:36:13.257Z,99913.50
2022-12-11T06:38:39.883Z,99907.56
2022-12-11T06:41:08.031Z,99907.47
2022-12-11T06:43:36.321Z,99905.16
2022-12-11T06:46:07.476Z,99909.84
2022-12-11T06:48:34.489Z,99909.38
2022-12-11T06:51:06.725Z,99908.41
2022-12-11T06:53:33.590Z,99907.38
2022-12-11T06:56:08.683Z,99917.34
2022-12-11T06:58:36.440Z,99913.22
2022-12-11T07:01:04.447Z,99908.44
2022-12-11T07:03:31.055Z,99916.31
2022-12-11T07:06:02.264Z,99911.94
2022-12-11T07:08:29.716Z,99907.25
2022-12-11T07:11:03.384Z,99923.41
2022-12-11T07:13:29.849Z,99926.47
2022-12-11T07:15:59.295Z,99925.72
2022-12-11T07:18:26.419Z,99930.88
2022-12-11T07:20:52.874Z,99928.06
2022-12-11T07:23:19.491Z,99935.72
2022-12-11T07:25:46.320Z,99933.06
2022-12-11T07:28:16.627Z,99930.78
2022-12-11T07:30:43.377Z,99939.94
2022-12-11T07:33:09.812Z,99942.44
2022-12-11T07:35:36.709Z,99942.19
2022-12-11T07:38:03.441Z,99944.59
2022-12-11T07:40:29.921Z,99947.91
2022-12-11T07:42:56.346Z,99942.72
2022-12-11T07:45:22.871Z,99937.16
2022-12-11T07:47:49.405Z,99935.81
2022-12-11T07:50:15.964Z,99944.66
2022-12-11T07:52:42.495Z,99955.78
2022-12-11T07:55:09.950Z,99950.22
2022-12-11T07:57:37.152Z,99948.25
2022-12-11T08:00:04.862Z,99947.44
2022-12-11T08:02:38.848Z,99957.38
2022-12-11T08:05:05.795Z,99953.44
2022-12-11T08:07:34.875Z,99946.38
2022-12-11T08:10:01.980Z,99957.59
2022-12-11T08:12:28.443Z,99955.59
2022-12-11T08:14:54.903Z,99935.13
2022-12-11T08:17:25.876Z,99944.53
2022-12-11T08:19:55.488Z,99945.56
2022-12-11T08:22:21.924Z,99946.59
2022-12-11T08:24:48.371Z,99945.47
2022-12-11T08:27:14.848Z,99942.72
2022-12-11T08:29:41.294Z,99943.75
2022-12-11T08:32:12.322Z,99941.66
2022-12-11T08:34:39.207Z,99939.97
2022-12-11T08:37:05.717Z,99927.56
2022-12-11T08:39:32.157Z,99930.78
2022-12-11T08:41:58.635Z,99935.28
2022-12-11T08:44:26.735Z,99932.81
2022-12-11T08:46:53.208Z,99931.72
2022-12-11T08:49:19.658Z,99933.88
2022-12-11T08:51:46.081Z,99934.56
2022-12-11T08:54:12.585Z,99934.16
2022-12-11T08:56:39.142Z,99928.06
2022-12-11T08:59:06.214Z,99929.69
2022-12-11T09:01:32.882Z,99941.50
2022-12-11T09:03:59.334Z,99942.66
2022-12-11T09:06:27.918Z,99941.25
2022-12-11T09:08:55.985Z,99933.19
2022-12-11T09:11:28.973Z,99934.53
2022-12-11T09:13:55.542Z,99942.41
2022-12-11T09:16:25.144Z,99942.06
2022-12-11T09:18:53.834Z,99942.00
2022-12-11T09:21:23.292Z,99939.97
2022-12-11T09:23:53.469Z,99943.34
2022-12-11T09:26:20.366Z,99937.00
2022-12-11T09:28:47.448Z,99936.59
2022-12-11T09:31:17.631Z,99941.78
2022-12-11T09:33:44.757Z,99932.63
2022-12-11T09:36:12.429Z,99925.81
2022-12-11T09:38:39.359Z,99931.91
2022-12-11T09:41:20.766Z,99930.78
2022-12-11T09:43:59.028Z,99934.50
2022-12-11T09:46:30.557Z,99925.19
2022-12-11T09:49:02.859Z,99922.63
2022-12-11T09:51:42.044Z,99927.66
2022-12-11T09:54:13.232Z,99932.41
2022-12-11T09:56:45.640Z,99932.63
2022-12-11T09:59:23.506Z,99926.19
2022-12-11T10:01:54.078Z,99929.88
2022-12-11T10:04:55.759Z,99920.31
2022-12-11T10:07:42.097Z,99922.28
2022-12-11T10:10:29.728Z,99911.16
2022-12-11T10:13:16.588Z,99907.53
2022-12-11T10:16:11.618Z,99909.50
2022-12-11T10:18:39.188Z,99907.00
2022-12-11T10:21:06.096Z,99895.44
2022-12-11T10:23:40.367Z,99903.44
2022-12-11T10:26:28.412Z,99903.00
2022-12-11T10:28:59.924Z,99903.22
2022-12-11T10:31:48.966Z,99894.31
2022-12-11T10:34:28.916Z,99898.38
2022-12-11T10:37:00.254Z,99893.19
2022-12-11T10:39:27.437Z,99893.41
2022-12-11T10:41:55.884Z,99881.81
2022-12-11T10:44:30.554Z,99888.81
2022-12-11T10:47:12.524Z,99878.94
2022-12-11T10:49:43.364Z,99878.78
2022-12-11T10:52:20.563Z,99877.16
2022-12-11T10:54:54.701Z,99873.78
2022-12-11T10:57:28.401Z,99875.31
2022-12-11T10:59:55.427Z,99867.66
2022-12-11T11:02:24.951Z,99874.19
2022-12-11T11:04:53.252Z,99860.47
2022-12-11T11:07:23.629Z,99872.19
2022-12-11T11:09:51.792Z,99864.91
2022-12-11T11:12:26.335Z,99870.16
2022-12-11T11:15:07.778Z,99871.56
2022-12-11T11:17:52.968Z,99859.13
2022-12-11T11:20:28.092Z,99855.41
2022-12-11T11:23:00.418Z,99854.63
2022-12-11T11:25:30.098Z,99855.72
2022-12-11T11:28:02.371Z,99848.06
2022-12-11T11:30:31.769Z,99845.84
2022-12-11T11:33:03.345Z,99846.28
2022-12-11T11:35:31.699Z,99839.31
2022-12-11T11:38:04.076Z,99845.06
2022-12-11T11:40:41.367Z,99830.78
2022-12-11T11:43:19.299Z,99833.84
2022-12-11T11:45:56.523Z,99827.03
2022-12-11T11:48:37.312Z,99828.38
2022-12-11T11:51:14.895Z,99834.81
2022-12-11T11:53:43.608Z,99839.56
2022-12-11T11:56:21.953Z,99832.50
2022-12-11T11:59:21.450Z,99825.16
2022-12-11T12:01:47.922Z,99825.03
2022-12-11T12:04:14.768Z,99832.56
2022-12-11T12:06:53.467Z,99824.31
2022-12-11T12:09:57.846Z,99820.25
2022-12-11T12:12:53.984Z,99812.50
2022-12-11T12:15:33.616Z,99812.91
2022-12-11T12:18:15.190Z,99808.91
2022-12-11T12:21:05.792Z,99817.94
2022-12-11T12:23:52.583Z,99811.53
2022-12-11T12:26:38.892Z,99811.84
2022-12-11T12:30:04.161Z,99817.75
2022-12-11T12:32:45.820Z,99816.63
2022-12-11T12:35:32.066Z,99810.22
2022-12-11T12:38:14.428Z,99806.94
2022-12-11T12:41:14.196Z,99803.38
2022-12-11T12:44:06.949Z,99801.69
2022-12-11T12:46:46.164Z,99795.09
2022-12-11T12:49:17.350Z,99807.00
2022-12-11T12:51:45.480Z,99802.66
2022-12-11T12:54:18.520Z,99794.78
2022-12-11T12:56:46.999Z,99796.75
2022-12-11T12:59:24.249Z,99791.00
2022-12-11T13:01:57.275Z,99781.19
2022-12-11T13:04:58.155Z,99789.41
2022-12-11T13:07:32.602Z,99785.16
2022-12-11T13:10:24.967Z,99788.78
2022-12-11T13:12:52.122Z,99782.16
2022-12-11T13:15:40.668Z,99778.13
2022-12-11T13:18:32.273Z,99780.44
2022-12-11T13:20:59.290Z,99775.06
2022-12-11T13:23:28.740Z,99779.41
2022-12-11T13:25:58.167Z,99777.97
2022-12-11T13:28:24.547Z,99780.19
2022-12-11T13:30:59.815Z,99779.06
2022-12-11T13:33:27.992Z,99780.06
2022-12-11T13:36:15.118Z,99783.28
2022-12-11T13:38:52.086Z,99782.06
2022-12-11T13:41:20.097Z,99786.44
2022-12-11T13:43:49.411Z,99789.88
2022-12-11T13:46:22.748Z,99785.81
2022-12-11T13:48:55.312Z,99778.47
2022-12-11T13:51:25.478Z,99791.41
2022-12-11T13:54:17.339Z,99790.34
2022-12-11T13:57:18.136Z,99791.25
2022-12-11T13:59:59.414Z,99791.84
2022-12-11T14:02:34.232Z,99794.72
2022-12-11T14:05:06.204Z,99793.88
2022-12-11T14:07:43.142Z,99794.84
2022-12-11T14:10:27.488Z,99787.75
2022-12-11T14:13:05.400Z,99794.31
2022-12-11T14:15:34.790Z,99797.66
2022-12-11T14:18:01.570Z,99793.81
2022-12-11T14:20:30.920Z,99803.78
2022-12-11T14:23:08.350Z,99807.97
2022-12-11T14:25:34.793Z,99803.75
2022-12-11T14:28:01.679Z,99797.34
2022-12-11T14:30:31.920Z,99798.09
2022-12-11T14:33:01.289Z,99798.81
2022-12-11T14:35:42.033Z,99798.03
2022-12-11T14:38:20.187Z,99796.25
2022-12-11T14:40:51.673Z,99802.56
2022-12-11T14:43:27.141Z,99796.97
2022-12-11T14:46:01.656Z,99802.16
2022-12-11T14:48:33.012Z,99803.47
2022-12-11T14:51:03.624Z,99815.34
2022-12-11T14:53:35.913Z,99807.75
2022-12-11T14:56:05.938Z,99805.56
2022-12-11T14:58:37.863Z,99810.91
2022-12-11T15:01:04.289Z,99818.59
2022-12-11T15:03:36.832Z,99808.91
2022-12-11T15:06:22.607Z,99808.50
2022-12-11T15:08:49.096Z,99815.38
2022-12-11T15:11:17.884Z,99822.03
2022-12-11T15:13:54.728Z,99820.63
2022-12-11T15:16:23.025Z,99810.63
2022-12-11T15:18:51.372Z,99815.38
2022-12-11T15:21:18.917Z,99813.53
2022-12-11T15:23:53.011Z,99813.19
2022-12-11T15:26:21.466Z,99816.56
2022-12-11T15:28:48.042Z,99812.81
2022-12-11T15:31:27.272Z,99813.63
2022-12-11T15:33:53.778Z,99816.03
2022-12-11T15:36:26.747Z,99810.78
2022-12-11T15:38:53.567Z,99816.91
2022-12-11T15:41:26.318Z,99817.75
2022-12-11T15:43:58.971Z,99810.66
2022-12-11T15:46:26.399Z,99804.31
2022-12-11T15:48:53.174Z,99804.97
2022-12-11T15:51:19.645Z,99808.78
2022-12-11T15:53:46.046Z,99809.03
2022-12-11T15:56:14.895Z,99810.28
2022-12-11T15:58:42.986Z,99807.31
2022-12-11T16:01:09.551Z,99821.00
2022-12-11T16:03:35.963Z,99820.22
2022-12-11T16:06:02.698Z,99814.63
2022-12-11T16:08:29.195Z,99818.75
2022-12-11T16:10:55.804Z,99818.59
2022-12-11T16:13:22.791Z,99821.81
2022-12-11T16:15:51.152Z,99829.94
2022-12-11T16:18:20.848Z,99827.84
2022-12-11T16:20:47.766Z,99825.63
2022-12-11T16:23:16.221Z,99824.69
2022-12-11T16:25:44.134Z,99823.13
2022-12-11T16:28:12.748Z,99830.13
2022-12-11T16:30:39.554Z,99824.25
2022-12-11T16:33:12.038Z,99828.25
2022-12-11T16:35:39.611Z,99830.78
2022-12-11T16:38:06.110Z,99819.44
2022-12-11T16:40:32.570Z,99822.06
2022-12-11T16:42:58.963Z,99819.69
2022-12-11T16:45:26.665Z,99820.41
2022-12-11T16:47:53.820Z,99821.22
2022-12-11T16:50:20.810Z,99814.38
2022-12-11T16:52:47.329Z,99814.00
2022-12-11T16:55:14.681Z,99811.97
2022-12-11T16:57:42.010Z,99814.06
2022-12-11T17:00:12.475Z,99809.63
2022-12-11T17:02:39.249Z,99815.91
2022-12-11T17:05:06.184Z,99816.63
2022-12-11T17:07:33.565Z,99812.47
2022-12-11T17:10:01.772Z,99817.91
2022-12-11T17:12:28.597Z,99821.06
2022-12-11T17:14:56.718Z,99821.38
2022-12-11T17:17:23.709Z,99819.66
2022-12-11T17:19:50.387Z,99816.88
2022-12-11T17:22:16.862Z,99824.22
2022-12-11T17:24:43.311Z,99823.00
2022-12-11T17:27:09.728Z,99825.81
2022-12-11T17:29:36.232Z,99824.91
2022-12-11T17:32:03.215Z,99825.50
2022-12-11T17:34:36.093Z,99826.03
2022-12-11T17:37:02.940Z,99822.03
2022-12-11T17:39:29.593Z,99824.97
2022-12-11T17:41:56.056Z,99823.50
2022-12-11T17:44:22.498Z,99819.31
2022-12-11T17:46:48.948Z,99827.81
2022-12-11T17:49:15.684Z,99820.38
2022-12-11T17:51:42.106Z,99825.34
2022-12-11T17:54:09.625Z,99826.41
2022-12-11T17:56:36.753Z,99826.47
2022-12-11T17:59:03.958Z,99827.03
2022-12-11T18:01:30.507Z,99826.84
2022-12-11T18:04:01.401Z,99831.50
2022-12-11T18:06:28.877Z,99827.28
2022-12-11T18:08:55.808Z,99827.28
2022-12-11T18:11:22.786Z,99820.81
2022-12-11T18:13:50.656Z,99820.25
2022-12-11T18:16:24.505Z,99822.06
2022-12-11T18:18:51.999Z,99822.41
2022-12-11T18:21:23.586Z,99821.78
2022-12-11T18:23:50.510Z,99821.44
2022-12-11T18:26:18.463Z,99827.66
2022-12-11T18:28:45.746Z,99830.28
2022-12-11T18:31:13.552Z,99834.75
2022-12-11T18:33:42.306Z,99833.06
2022-12-11T18:36:09.587Z,99835.31
2022-12-11T18:38:36.051Z,99829.81
2022-12-11T18:41:07.252Z,99829.88
2022-12-11T18:43:34.132Z,99824.69
2022-12-11T18:46:05.861Z,99814.78
2022-12-11T18:48:32.377Z,99823.69
2022-12-11T18:50:58.887Z,99830.13
2022-12-11T18:53:25.375Z,99825.41
2022-12-11T18:55:57.109Z,99829.22
2022-12-11T18:58:26.557Z,99830.50
2022-12-11T19:00:53.032Z,99827.09
2022-12-11T19:03:19.496Z,99828.06
2022-12-11T19:05:45.984Z,99815.72
2022-12-11T19:08:13.832Z,99821.38
2022-12-11T19:10:45.247Z,99812.88
2022-12-11T19:13:12.191Z,99820.97
2022-12-11T19:15:43.222Z,99820.72
2022-12-11T19:18:11.051Z,99820.44
2022-12-11T19:21:03.245Z,99809.50
2022-12-11T19:23:25.198Z,99821.78
2022-12-11T19:25:51.769Z,99822.59
2022-12-11T19:28:18.330Z,99821.97
2022-12-11T19:30:47.402Z,99813.75
2022-12-11T19:33:15.380Z,99813.94
2022-12-11T19:35:42.073Z,99812.66
2022-12-11T19:38:08.601Z,99827.97
2022-12-11T19:40:44.819Z,99816.75
2022-12-11T19:43:11.260Z,99817.56
2022-12-11T19:45:38.078Z,99819.22
2022-12-11T19:48:04.744Z,99816.03
2022-12-11T19:50:35.825Z,99822.44
2022-12-11T19:53:02.368Z,99821.81
2022-12-11T19:55:28.792Z,99829.34
2022-12-11T19:57:55.628Z,99820.13
2022-12-11T20:00:22.136Z,99822.16
2022-12-11T20:02:49.067Z,99818.56
2022-12-11T20:05:15.758Z,99819.44
2022-12-11T20:07:44.552Z,99814.47
2022-12-11T20:10:11.330Z,99820.13
2022-12-11T20:12:37.775Z,99816.25
2022-12-11T20:15:06.075Z,99810.56
2022-12-11T20:17:33.269Z,99815.34
2022-12-11T20:19:59.806Z,99815.63
2022-12-11T20:22:26.253Z,99823.88
2022-12-11T20:24:52.790Z,99821.97
2022-12-11T20:27:19.229Z,99815.59
2022-12-11T20:29:45.654Z,99815.63
2022-12-11T20:32:12.278Z,99811.63
2022-12-11T20:34:39.032Z,99810.59
2022-12-11T20:37:05.549Z,99818.50
2022-12-11T20:39:32.018Z,99819.63
2022-12-11T20:41:58.490Z,99814.59
2022-12-11T20:44:24.915Z,99815.78
2022-12-11T20:46:51.552Z,99812.44
2022-12-11T20:49:18.001Z,99814.53
2022-12-11T20:51:44.408Z,99807.22
2022-12-11T20:54:11.882Z,99815.34
2022-12-11T20:56:38.470Z,99810.72
2022-12-11T20:59:05.360Z,99811.00
2022-12-11T21:01:35.002Z,99815.59
2022-12-11T21:04:02.000Z,99814.75
2022-12-11T21:06:34.472Z,99810.91
2022-12-11T21:09:03.900Z,99811.63
2022-12-11T21:11:30.374Z,99807.19
2022-12-11T21:13:56.868Z,99815.91
2022-12-11T21:16:24.429Z,99813.84
2022-12-11T21:18:51.908Z,99802.69
2022-12-11T21:21:19.604Z,99800.41
2022-12-11T21:23:46.044Z,99799.63
2022-12-11T21:26:13.063Z,99799.47
2022-12-11T21:28:39.575Z,99802.34
2022-12-11T21:31:08.969Z,99798.13
2022-12-11T21:33:36.017Z,99805.50
2022-12-11T21:36:03.869Z,99797.56
2022-12-11T21:38:30.390Z,99798.13
2022-12-11T21:40:57.247Z,99796.03
2022-12-11T21:43:24.030Z,99782.03
2022-12-11T21:46:06.518Z,99785.25
2022-12-11T21:48:33.244Z,99788.56
2022-12-11T21:51:11.910Z,99783.72
2022-12-11T21:53:39.250Z,99786.22
2022-12-11T21:56:11.894Z,99786.19
2022-12-11T21:58:40.512Z,99782.06
2022-12-11T22:01:13.130Z,99788.78
2022-12-11T22:03:39.633Z,99786.19
2022-12-11T22:06:06.239Z,99785.47
2022-12-11T22:08:32.685Z,99783.44
2022-12-11T22:11:00.947Z,99782.81
2022-12-11T22:13:28.270Z,99778.38
2022-12-11T22:15:55.101Z,99776.84
2022-12-11T22:18:21.984Z,99783.06
2022-12-11T22:20:48.419Z,99776.38
2022-12-11T22:23:14.815Z,99780.44
2022-12-11T22:25:41.290Z,99779.25
2022-12-11T22:28:07.691Z,99779.56
2022-12-11T22:30:34.169Z,99779.66
2022-12-11T22:33:00.688Z,99785.91
2022-12-11T22:35:27.582Z,99780.22
2022-12-11T22:37:54.351Z,99790.31
2022-12-11T22:40:20.864Z,99788.28
2022-12-11T22:42:47.356Z,99779.53
2022-12-11T22:45:14.426Z,99777.38
2022-12-11T22:47:41.294Z,99780.72
2022-12-11T22:50:08.461Z,99778.66
2022-12-11T22:52:34.934Z,99778.84
2022-12-11T22:55:01.478Z,99780.59
2022-12-11T22:57:28.026Z,99782.06
2022-12-11T22:59:54.538Z,99775.88
2022-12-11T23:02:21.003Z,99786.19
2022-12-11T23:04:48.050Z,99780.50
2022-12-11T23:07:14.528Z,99791.97
2022-12-11T23:09:40.997Z,99791.84
2022-12-11T23:12:08.303Z,99785.16
2022-12-11T23:14:34.761Z,99796.47
2022-12-11T23:17:01.219Z,99789.91
2022-12-11T23:19:27.668Z,99795.25
2022-12-11T23:21:54.100Z,99790.16
2022-12-11T23:24:22.395Z,99805.00
2022-12-11T23:26:48.944Z,99793.25
2022-12-11T23:29:15.382Z,99796.41
2022-12-11T23:31:41.915Z,99802.13
2022-12-11T23:34:08.344Z,99791.16
2022-12-11T23:36:34.785Z,99791.09
2022-12-11T23:39:01.209Z,99807.25
2022-12-11T23:41:27.665Z,99792.84
2022-12-11T23:43:54.111Z,99798.59
2022-12-11T23:46:22.735Z,99803.56
2022-12-11T23:48:49.689Z,99795.06
2022-12-11T23:51:18.331Z,99796.50
2022-12-11T23:53:45.607Z,99797.34
2022-12-11T23:56:38.494Z,99790.81
2022-12-11T23:59:05.017Z,99796.00
